Accueil
METAR-TAF:

METAR-TAF

Aéroports :

Base aérienne 113 Saint-Dizier-Robinson

Saint-Dizier, France

latitude: 48-38N, longitude: 004-54E, altitude: 139 m

Observation

Le bulletin a été fait il y a 28 minutes, à 07:30 UTC
Vent calme
Température -5°C
Humidité 93%
Pression 1041 hPa
Visibilité: 6000 m

METAR: LFSI 210730Z AUTO 00000KT 6000 NSC M05/M06 Q1041

Heure: 08:58 (07:58 UTC)

Prévision

Le bulletin a été fait il y a 5 heures et 58 minutes, à 02:00 UTC
Prévision valable du 21 à 03 UTC au 22 à 03 UTC
Vent 6 kt de nord-est
Visibilité 10 km ou plus
pas de nuages en-dessous de 1500 mètres et pas de cumulonimbus.
Probabilité 30% :
Temporairement
du 21 à 03 UTC au 21 à 08 UTC
Visibilité: 3000 m
brume

TAF: LFSI 210200Z 2103/2203 04006KT CAVOK PROB30 TEMPO 2103/2108 3000 BR

Observations et prévisions météorologiques de plus de 4000 aéroports (messages METAR et TAF).

Les stations disponibles sont représentées par des disques jaunes et rouges sur la carte.

Passer la souris dessus pour voir le nom de la station.

Cliquer dessus pour voir les observations et prévisions météorologiques.

Pour changer de carte: cliquez sur les boutons verts avec une croix noire pour zoomer, sur le bouton vert avec un tiret pour effectuer un zoom arrière, ou sur les flèches vertes pour les cartes adjacentes.


METAR-TAF: